createdAt,value
2019-02-06T00:02:53.376Z,16.93
2019-02-06T00:07:54.893Z,15.80
2019-02-06T00:12:57.158Z,22.23
2019-02-06T00:17:58.351Z,16.47
2019-02-06T00:22:59.851Z,14.03
2019-02-06T00:28:01.052Z,14.77
2019-02-06T00:33:02.762Z,11.20
2019-02-06T00:38:05.487Z,12.23
2019-02-06T00:43:06.911Z,19.50
2019-02-06T00:48:08.083Z,27.90
2019-02-06T00:53:09.301Z,27.07
2019-02-06T00:58:10.611Z,27.27
2019-02-06T01:03:12.311Z,20.27
2019-02-06T01:08:13.801Z,17.53
2019-02-06T01:13:15.090Z,13.30
2019-02-06T01:18:16.188Z,13.47
2019-02-06T01:23:17.392Z,9.43
2019-02-06T01:28:18.484Z,10.37
2019-02-06T01:33:19.680Z,7.90
2019-02-06T01:38:20.903Z,5.47
2019-02-06T01:43:22.043Z,8.27
2019-02-06T01:48:23.152Z,8.00
2019-02-06T01:53:24.323Z,10.73
2019-02-06T01:58:25.408Z,13.60
2019-02-06T02:03:26.716Z,14.50
2019-02-06T02:08:29.111Z,11.30
2019-02-06T02:13:30.602Z,5.70
2019-02-06T02:18:31.704Z,6.83
2019-02-06T02:23:32.907Z,8.37
2019-02-06T02:28:34.010Z,5.43
2019-02-06T02:33:35.116Z,4.53
2019-02-06T02:38:36.209Z,5.70
2019-02-06T02:43:37.325Z,6.40
2019-02-06T02:48:38.417Z,7.23
2019-02-06T02:53:39.626Z,6.07
2019-02-06T02:58:40.826Z,6.80
2019-02-06T03:03:43.933Z,5.13
2019-02-06T03:08:45.326Z,7.97
2019-02-06T03:13:46.420Z,3.80
2019-02-06T03:18:47.836Z,6.37
2019-02-06T03:23:48.966Z,6.70
2019-02-06T03:28:50.174Z,5.53
2019-02-06T03:33:51.283Z,7.63
2019-02-06T03:38:52.375Z,9.50
2019-02-06T03:43:53.614Z,6.30
2019-02-06T03:48:54.716Z,6.50
2019-02-06T03:53:55.825Z,5.43
2019-02-06T03:58:56.924Z,7.47
2019-02-06T04:03:58.442Z,7.57
2019-02-06T04:08:59.610Z,10.63
2019-02-06T04:14:00.814Z,7.97
2019-02-06T04:19:02.029Z,9.43
2019-02-06T04:24:03.323Z,6.50
2019-02-06T04:29:04.526Z,6.73
2019-02-06T04:34:05.719Z,10.70
2019-02-06T04:39:07.145Z,10.27
2019-02-06T04:44:08.373Z,10.20
2019-02-06T04:49:09.675Z,9.93
2019-02-06T04:54:10.859Z,8.67
2019-02-06T04:59:12.352Z,10.33
2019-02-06T05:04:13.444Z,8.10
2019-02-06T05:09:14.551Z,7.00
2019-02-06T05:14:15.654Z,6.53
2019-02-06T05:19:16.889Z,24.40
2019-02-06T05:24:17.999Z,10.00
2019-02-06T05:29:19.179Z,10.13
2019-02-06T05:34:20.286Z,12.80
2019-02-06T05:39:21.416Z,11.60
2019-02-06T05:44:22.708Z,16.67
2019-02-06T05:49:23.949Z,15.70
2019-02-06T05:54:25.152Z,13.17
2019-02-06T05:59:26.250Z,14.87
2019-02-06T06:04:27.339Z,13.00
2019-02-06T06:09:28.839Z,11.20
2019-02-06T06:14:30.037Z,12.53
2019-02-06T06:19:31.149Z,12.57
2019-02-06T06:24:32.666Z,11.50
2019-02-06T06:29:33.892Z,10.23
2019-02-06T06:34:35.172Z,7.50
2019-02-06T06:39:36.659Z,9.03
2019-02-06T06:44:37.879Z,8.97
2019-02-06T06:49:38.971Z,9.27
2019-02-06T06:54:40.175Z,12.70
2019-02-06T06:59:41.345Z,10.27
2019-02-06T07:04:42.635Z,13.83
2019-02-06T07:09:43.731Z,12.57
2019-02-06T07:14:44.839Z,16.87
2019-02-06T07:19:46.428Z,14.83
2019-02-06T07:24:47.546Z,16.97
2019-02-06T07:29:48.640Z,17.57
2019-02-06T07:34:49.773Z,15.80
2019-02-06T07:39:50.871Z,28.63
2019-02-06T07:44:52.002Z,42.27
2019-02-06T07:49:53.084Z,34.13
2019-02-06T07:54:54.195Z,30.33
2019-02-06T07:59:55.318Z,24.57
2019-02-06T08:04:56.442Z,17.40
2019-02-06T08:09:57.547Z,17.13
2019-02-06T08:14:58.720Z,16.03
2019-02-06T08:19:59.822Z,12.17
2019-02-06T08:25:01.050Z,10.93
2019-02-06T08:30:12.154Z,10.90
2019-02-06T08:35:13.551Z,23.53
2019-02-06T08:40:18.144Z,29.27
2019-02-06T08:45:19.458Z,24.17
2019-02-06T08:50:21.895Z,26.67
2019-02-06T08:55:29.430Z,27.27
2019-02-06T09:00:36.407Z,26.97
2019-02-06T09:05:37.582Z,37.03
2019-02-06T09:10:38.816Z,33.17
2019-02-06T09:15:39.932Z,30.30
2019-02-06T09:20:41.957Z,28.23
2019-02-06T09:25:43.154Z,30.87
2019-02-06T09:30:44.257Z,28.23
2019-02-06T09:35:45.450Z,31.03
2019-02-06T09:40:49.380Z,31.40
2019-02-06T09:45:49.631Z,30.67
2019-02-06T09:50:50.730Z,34.70
2019-02-06T09:55:53.366Z,28.23
2019-02-06T10:00:54.631Z,36.03
2019-02-06T10:05:55.830Z,32.67
2019-02-06T10:10:57.041Z,28.10
2019-02-06T10:15:58.743Z,25.97
2019-02-06T10:20:59.842Z,25.90
2019-02-06T10:26:00.937Z,25.53
2019-02-06T10:31:02.452Z,27.80
2019-02-06T10:36:03.801Z,32.50
2019-02-06T10:41:05.024Z,30.20
2019-02-06T10:46:06.348Z,23.43
2019-02-06T10:51:07.950Z,29.60
2019-02-06T10:56:09.047Z,33.30
2019-02-06T11:01:10.351Z,25.13
2019-02-06T11:06:11.562Z,25.53
2019-02-06T11:11:13.170Z,33.63
2019-02-06T11:16:14.259Z,26.67
2019-02-06T11:21:15.453Z,27.57
2019-02-06T11:26:18.576Z,27.37
2019-02-06T11:31:19.767Z,29.43
2019-02-06T11:36:24.261Z,26.63
2019-02-06T11:41:24.109Z,27.53
2019-02-06T11:46:25.253Z,26.07
2019-02-06T11:51:26.971Z,29.30
2019-02-06T11:56:28.058Z,23.10
2019-02-06T12:01:29.558Z,22.10
2019-02-06T12:06:30.758Z,25.97
2019-02-06T12:11:31.857Z,26.47
2019-02-06T12:16:33.017Z,20.90
2019-02-06T12:21:34.453Z,27.27
2019-02-06T12:26:35.664Z,20.63
2019-02-06T12:31:36.756Z,25.27
2019-02-06T12:36:37.848Z,23.37
2019-02-06T12:41:38.943Z,17.03
2019-02-06T12:46:40.081Z,19.73
2019-02-06T12:51:41.171Z,20.30
2019-02-06T12:56:42.247Z,23.40
2019-02-06T13:01:43.599Z,20.47
2019-02-06T13:06:44.980Z,18.83
2019-02-06T13:11:46.074Z,16.60
2019-02-06T13:16:47.181Z,22.17
2019-02-06T13:21:48.533Z,21.57
2019-02-06T13:26:49.644Z,19.67
2019-02-06T13:31:50.859Z,16.50
2019-02-06T13:36:52.056Z,18.00
2019-02-06T13:41:53.162Z,20.23
2019-02-06T13:46:54.516Z,18.40
2019-02-06T13:51:55.619Z,17.60
2019-02-06T13:56:56.736Z,21.47
2019-02-06T14:01:57.841Z,21.43
2019-02-06T14:06:59.148Z,19.53
2019-02-06T14:12:00.243Z,20.73
2019-02-06T14:17:01.439Z,20.20
2019-02-06T14:22:02.944Z,22.30
2019-02-06T14:27:14.495Z,26.70
2019-02-06T14:32:31.391Z,21.07
2019-02-06T14:37:45.611Z,27.37
2019-02-06T14:42:56.391Z,24.10
2019-02-06T14:48:22.201Z,24.57
2019-02-06T14:53:56.682Z,20.30
2019-02-06T14:59:10.705Z,21.07
2019-02-06T15:04:37.003Z,19.07
2019-02-06T15:10:01.772Z,25.57
2019-02-06T15:15:12.722Z,29.57
2019-02-06T15:20:29.592Z,24.90
2019-02-06T15:25:57.936Z,22.30
2019-02-06T15:31:36.354Z,29.13
2019-02-06T15:36:41.372Z,43.40
2019-02-06T15:42:21.166Z,37.20
2019-02-06T15:47:48.592Z,27.60
2019-02-06T15:52:56.554Z,22.77
2019-02-06T15:58:16.843Z,26.37
2019-02-06T16:04:00.767Z,22.37
2019-02-06T16:09:18.060Z,21.93
2019-02-06T16:14:40.788Z,19.70
2019-02-06T16:19:48.892Z,20.73
2019-02-06T16:24:53.827Z,25.83
2019-02-06T16:30:07.980Z,20.40
2019-02-06T16:35:19.109Z,22.47
2019-02-06T16:40:32.904Z,25.07
2019-02-06T16:46:00.624Z,22.63
2019-02-06T16:51:11.637Z,20.60
2019-02-06T16:56:19.772Z,19.37
2019-02-06T17:01:44.864Z,29.90
2019-02-06T17:07:07.915Z,17.33
2019-02-06T17:12:18.803Z,20.57
2019-02-06T17:17:23.749Z,20.87
2019-02-06T17:22:37.649Z,20.43
2019-02-06T17:27:45.737Z,21.63
2019-02-06T17:33:11.136Z,21.03
2019-02-06T17:38:33.722Z,24.07
2019-02-06T17:43:50.898Z,34.97
2019-02-06T17:48:58.819Z,37.37
2019-02-06T17:54:15.633Z,50.60
2019-02-06T17:59:16.971Z,40.03
2019-02-06T18:04:18.239Z,39.67
2019-02-06T18:09:19.627Z,34.43
2019-02-06T18:14:20.914Z,40.77
2019-02-06T18:19:22.427Z,38.37
2019-02-06T18:24:23.945Z,37.33
2019-02-06T18:29:25.155Z,39.30
2019-02-06T18:34:27.588Z,37.20
2019-02-06T18:39:29.300Z,51.97
2019-02-06T18:44:30.625Z,44.13
2019-02-06T18:49:32.070Z,50.33
2019-02-06T18:54:33.499Z,39.43
2019-02-06T18:59:34.953Z,36.97
2019-02-06T19:04:36.257Z,33.40
2019-02-06T19:09:37.782Z,35.80
2019-02-06T19:14:39.034Z,55.27
2019-02-06T19:19:40.289Z,59.53
2019-02-06T19:24:41.513Z,64.37
2019-02-06T19:29:42.811Z,63.63
2019-02-06T19:34:43.950Z,63.40
2019-02-06T19:39:45.542Z,67.57
2019-02-06T19:44:46.938Z,57.57
2019-02-06T19:49:48.430Z,55.77
2019-02-06T19:54:50.144Z,61.37
2019-02-06T19:59:51.639Z,67.00
2019-02-06T20:04:52.985Z,66.43
2019-02-06T20:09:54.545Z,66.77
2019-02-06T20:14:56.548Z,72.33
2019-02-06T20:19:57.909Z,66.87
2019-02-06T20:24:59.202Z,49.53
2019-02-06T20:30:00.868Z,33.67
2019-02-06T20:35:03.624Z,37.60
2019-02-06T20:40:14.316Z,29.70
2019-02-06T20:45:15.876Z,30.13
2019-02-06T20:50:19.930Z,25.17
2019-02-06T20:55:21.282Z,18.00
2019-02-06T21:00:28.204Z,19.47
2019-02-06T21:05:29.675Z,21.53
2019-02-06T21:10:33.566Z,26.53
2019-02-06T21:15:34.767Z,18.43
2019-02-06T21:20:36.176Z,22.00
2019-02-06T21:25:39.190Z,15.50
2019-02-06T21:30:42.495Z,16.40
2019-02-06T21:35:43.856Z,41.27
2019-02-06T21:40:45.073Z,61.37
2019-02-06T21:45:46.325Z,64.77
2019-02-06T21:50:47.980Z,50.27
2019-02-06T21:55:49.229Z,57.73
2019-02-06T22:00:50.547Z,36.43
2019-02-06T22:05:51.783Z,30.53
2019-02-06T22:10:52.883Z,29.57
2019-02-06T22:15:54.008Z,31.00
2019-02-06T22:20:55.946Z,30.93
2019-02-06T22:25:57.150Z,32.67
2019-02-06T22:30:58.349Z,31.63
2019-02-06T22:35:59.467Z,31.47
2019-02-06T22:41:00.650Z,26.57
2019-02-06T22:46:01.984Z,27.40
2019-02-06T22:51:03.115Z,29.90
2019-02-06T22:56:04.602Z,32.07
2019-02-06T23:01:18.555Z,56.63
2019-02-06T23:06:19.963Z,69.10
2019-02-06T23:11:21.177Z,60.33
2019-02-06T23:16:22.479Z,52.23
2019-02-06T23:21:23.675Z,53.27
2019-02-06T23:26:24.792Z,52.93
2019-02-06T23:31:25.918Z,55.40
2019-02-06T23:36:27.504Z,59.33
2019-02-06T23:41:29.121Z,55.50
2019-02-06T23:46:30.254Z,36.27
2019-02-06T23:51:31.886Z,25.70
2019-02-06T23:56:33.190Z,34.70
